Time;durP1;ratioP1;P1;durP2;ratioP2;P2;SDS_P1;SDS_P2;PMS_P1;PMS_P2;Temp;Humidity;BMP_temperature;BMP_pressure;BME280_temperature;BME280_humidity;BME280_pressure;Samples;Min_cycle;Max_cycle;Signal;HPM_P1;HPM_P2
2023/07/02 00:00:51;;;;;;;5.22;1.92;;;;;;;19.14;70.88;96129.97;4947324;29;20051;-78
2023/07/02 00:03:21;;;;;;;2.10;1.90;;;;;;;19.09;71.12;96131.78;4952691;29;20530;-78
2023/07/02 00:05:50;;;;;;;2.65;2.40;;;;;;;19.04;70.96;96131.69;4953666;29;20134;-78
2023/07/02 00:08:18;;;;;;;2.53;2.20;;;;;;;18.98;71.00;96127.41;4957209;28;20051;-78
2023/07/02 00:10:45;;;;;;;3.92;2.05;;;;;;;18.96;70.91;96129.47;4969423;29;20051;-78
2023/07/02 00:13:14;;;;;;;2.53;2.33;;;;;;;18.97;70.72;96136.38;4964613;29;20066;-78
2023/07/02 00:15:42;;;;;;;4.47;2.22;;;;;;;19.00;70.08;96136.69;4955469;29;20163;-78
2023/07/02 00:18:09;;;;;;;3.28;2.33;;;;;;;19.02;69.96;96134.63;4954328;29;20146;-78
2023/07/02 00:20:38;;;;;;;2.42;2.22;;;;;;;18.99;69.82;96139.56;4954160;29;20502;-78
2023/07/02 00:23:07;;;;;;;2.40;2.20;;;;;;;19.00;69.46;96136.69;4954214;29;20138;-78
2023/07/02 00:25:35;;;;;;;2.28;2.08;;;;;;;19.01;69.05;96132.22;4954456;29;20099;-78
2023/07/02 00:28:02;;;;;;;2.60;2.00;;;;;;;19.03;68.99;96135.41;4954186;29;20566;-78
2023/07/02 00:30:30;;;;;;;3.45;2.20;;;;;;;19.02;68.88;96133.78;4955572;29;20078;-78
2023/07/02 00:32:58;;;;;;;2.60;2.28;;;;;;;19.02;68.57;96139.06;4958113;29;20057;-78
2023/07/02 00:35:25;;;;;;;3.22;2.92;;;;;;;19.01;68.47;96132.22;4953873;29;20086;-78
2023/07/02 00:37:54;;;;;;;2.25;2.05;;;;;;;18.98;68.80;96130.03;4954162;29;20079;-78
2023/07/02 00:40:22;;;;;;;3.08;2.25;;;;;;;18.94;68.84;96133.19;4954398;29;20392;-78
2023/07/02 00:42:50;;;;;;;2.45;2.00;;;;;;;18.93;68.44;96130.78;4954068;29;20081;-77
2023/07/02 00:45:17;;;;;;;4.85;2.13;;;;;;;18.91;68.32;96125.75;4954003;29;20052;-78
2023/07/02 00:47:46;;;;;;;2.28;2.10;;;;;;;18.88;68.17;96126.22;4953941;29;20078;-78
2023/07/02 00:50:14;;;;;;;2.70;2.50;;;;;;;18.83;68.22;96120.09;4953901;29;20055;-78
2023/07/02 00:52:42;;;;;;;2.33;2.13;;;;;;;18.81;68.72;96132.75;4954079;29;20430;-78
2023/07/02 00:55:11;;;;;;;3.17;2.88;;;;;;;18.79;68.86;96130.34;4954101;29;20106;-78
2023/07/02 00:57:40;;;;;;;2.53;2.33;;;;;;;18.78;68.52;96133.22;4954000;29;20055;-77
2023/07/02 01:00:09;;;;;;;3.00;2.33;;;;;;;18.76;68.54;96132.66;4953974;29;20051;-78
2023/07/02 01:02:38;;;;;;;6.13;2.55;;;;;;;18.73;68.35;96136.59;4953680;29;20082;-78
2023/07/02 01:05:06;;;;;;;2.58;2.15;;;;;;;18.70;68.74;96137.09;4953825;29;20051;-78
2023/07/02 01:07:33;;;;;;;3.30;2.05;;;;;;;18.70;68.66;96134.44;4954241;29;20057;-78
2023/07/02 01:10:01;;;;;;;4.40;2.83;;;;;;;18.71;68.32;96138.66;4953461;29;20061;-78
2023/07/02 01:12:30;;;;;;;3.88;2.60;;;;;;;18.68;68.17;96129.38;4953611;29;20082;-78
2023/07/02 01:15:03;;;;;;;2.95;2.05;;;;;;;18.65;68.46;96129.06;4953549;29;20146;-78
2023/07/02 01:17:37;;;;;;;2.45;1.75;;;;;;;18.62;68.33;96132.22;4953925;29;20133;-77
2023/07/02 01:20:08;;;;;;;2.80;2.45;;;;;;;18.56;68.14;96127.91;4956002;28;20459;-78
2023/07/02 01:22:37;;;;;;;2.00;1.80;;;;;;;18.50;68.72;96133.13;4957276;29;20058;-77
2023/07/02 01:25:05;;;;;;;3.25;2.15;;;;;;;18.50;68.63;96133.13;4957259;29;20466;-77
2023/07/02 01:27:35;;;;;;;1.90;1.80;;;;;;;18.52;68.63;96135.53;4957238;29;20066;-78
2023/07/02 01:30:04;;;;;;;3.92;2.60;;;;;;;18.51;68.52;96137.34;4956811;29;20051;-77
2023/07/02 01:32:31;;;;;;;2.63;2.10;;;;;;;18.51;68.33;96137.34;4957149;29;20085;-78
2023/07/02 01:35:00;;;;;;;2.47;2.10;;;;;;;18.52;68.42;96136.31;4964977;29;20051;-78
2023/07/02 01:37:37;;;;;;;3.70;2.50;;;;;;;18.50;68.16;96133.13;4974604;29;20062;-78
2023/07/02 01:40:05;;;;;;;4.22;2.22;;;;;;;18.51;68.25;96129.41;4972042;29;20055;-78
2023/07/02 01:42:33;;;;;;;3.45;2.63;;;;;;;18.52;68.11;96133.69;4975525;29;20069;-78
2023/07/02 01:45:01;;;;;;;2.85;2.20;;;;;;;18.51;68.24;96134.72;4963270;29;20067;-78
2023/07/02 01:47:28;;;;;;;2.63;2.38;;;;;;;18.49;67.82;96130.72;4958759;29;20149;-77
2023/07/02 01:49:56;;;;;;;3.90;1.88;;;;;;;18.48;68.26;96127.28;4963055;29;20058;-78
2023/07/02 01:52:24;;;;;;;3.55;2.20;;;;;;;18.44;68.08;96134.09;4959255;29;20098;-78
2023/07/02 01:54:53;;;;;;;3.53;2.50;;;;;;;18.37;68.22;96137.97;4959219;29;20491;-77
2023/07/02 01:57:20;;;;;;;2.75;1.85;;;;;;;18.31;68.85;96139.72;4956864;29;20134;-77
2023/07/02 01:59:48;;;;;;;2.85;2.25;;;;;;;18.28;68.96;96134.94;4956589;29;20109;-77
2023/07/02 02:02:15;;;;;;;2.97;2.00;;;;;;;18.28;69.17;96145.47;4956584;29;20081;-77
2023/07/02 02:04:43;;;;;;;4.72;2.60;;;;;;;18.26;68.96;96143.06;4956429;29;20102;-77
2023/07/02 02:07:11;;;;;;;3.35;2.50;;;;;;;18.22;69.26;96149.09;4956337;29;20055;-77
2023/07/02 02:09:38;;;;;;;2.78;2.58;;;;;;;18.19;69.12;96142.44;4956279;29;20090;-77
2023/07/02 02:12:08;;;;;;;3.08;2.78;;;;;;;18.15;69.18;96145.78;4956580;29;20079;-77
2023/07/02 02:14:36;;;;;;;2.30;1.92;;;;;;;18.14;69.61;96141.56;4956365;29;20550;-78
2023/07/02 02:17:04;;;;;;;4.35;2.28;;;;;;;18.15;69.65;96151.06;4956182;29;20100;-77
2023/07/02 02:19:31;;;;;;;3.45;2.55;;;;;;;18.17;69.29;96154.25;4955946;29;20047;-77
2023/07/02 02:21:59;;;;;;;3.00;2.35;;;;;;;18.19;69.68;96157.47;4956365;29;20134;-77
2023/07/02 02:24:26;;;;;;;3.15;2.15;;;;;;;18.22;69.40;96162.28;4956234;29;20471;-77
2023/07/02 02:26:54;;;;;;;2.80;2.22;;;;;;;18.23;69.22;96158.59;4956230;29;20075;-78
2023/07/02 02:29:23;;;;;;;4.07;2.10;;;;;;;18.21;69.10;96153.53;4955864;29;20102;-77
2023/07/02 02:31:51;;;;;;;4.88;2.40;;;;;;;18.21;69.16;96156.19;4955563;28;20090;-77
2023/07/02 02:34:18;;;;;;;2.78;2.15;;;;;;;18.18;69.04;96150.59;4955871;29;20075;-78
2023/07/02 02:36:47;;;;;;;3.05;2.30;;;;;;;18.16;69.24;96150.03;4955959;29;20051;-77
2023/07/02 02:39:14;;;;;;;2.30;2.05;;;;;;;18.18;69.43;96140.84;4955313;29;20055;-77
2023/07/02 02:41:42;;;;;;;3.70;2.63;;;;;;;18.17;69.06;96141.88;4955814;29;20051;-78
2023/07/02 02:44:10;;;;;;;2.70;2.50;;;;;;;18.11;69.10;96146.28;4956277;29;20087;-76
2023/07/02 02:46:38;;;;;;;3.08;2.22;;;;;;;18.06;69.40;96142.75;4955669;29;20053;-76
2023/07/02 02:49:06;;;;;;;2.35;2.10;;;;;;;18.03;69.68;96133.47;4955524;29;20082;-75
2023/07/02 02:51:34;;;;;;;2.38;2.17;;;;;;;18.03;69.78;96133.47;4955811;29;20083;-76
2023/07/02 02:54:01;;;;;;;2.45;2.17;;;;;;;18.02;69.84;96142.44;4955746;29;20082;-77
2023/07/02 02:56:29;;;;;;;3.40;2.28;;;;;;;17.98;69.58;96146.59;4955560;29;20066;-77
2023/07/02 02:58:56;;;;;;;2.95;2.22;;;;;;;17.96;69.92;96148.69;4968146;29;20093;-78
2023/07/02 03:01:24;;;;;;;3.38;1.80;;;;;;;17.97;70.34;96154.75;4967903;29;20051;-77
2023/07/02 03:03:53;;;;;;;3.28;2.10;;;;;;;17.99;70.33;96148.19;4956900;29;20530;-77
2023/07/02 03:06:21;;;;;;;3.20;2.45;;;;;;;17.99;69.82;96150.81;4955655;29;20414;-77
2023/07/02 03:08:48;;;;;;;2.55;1.95;;;;;;;17.97;69.66;96150.25;4955423;29;20138;-77
2023/07/02 03:11:16;;;;;;;2.08;1.88;;;;;;;17.97;69.98;96144.97;4955264;29;20538;-78
2023/07/02 03:13:43;;;;;;;3.30;1.85;;;;;;;18.00;70.06;96149.81;4955402;29;20109;-77
2023/07/02 03:16:11;;;;;;;2.25;2.05;;;;;;;18.00;69.87;96155.09;4955329;29;20110;-77
2023/07/02 03:18:38;;;;;;;4.63;2.55;;;;;;;18.02;69.72;96158.28;4955130;29;20142;-77
2023/07/02 03:21:07;;;;;;;5.97;2.67;;;;;;;18.01;69.52;96161.94;4955084;29;20054;-78
2023/07/02 03:23:35;;;;;;;2.22;2.03;;;;;;;18.01;69.72;96158.50;4955248;29;20558;-78
2023/07/02 03:26:02;;;;;;;2.60;2.40;;;;;;;18.00;69.62;96154.28;4955078;29;20082;-77
2023/07/02 03:28:30;;;;;;;3.40;2.17;;;;;;;17.96;69.73;96151.31;4954859;29;20051;-77
2023/07/02 03:30:58;;;;;;;3.85;2.30;;;;;;;17.98;69.75;96157.16;4954844;29;20488;-77
2023/07/02 03:33:25;;;;;;;3.90;2.38;;;;;;;18.01;69.63;96156.66;4955102;29;20146;-77
2023/07/02 03:35:53;;;;;;;2.90;2.25;;;;;;;18.02;69.51;96160.13;4954932;29;20098;-77
2023/07/02 03:38:21;;;;;;;3.40;2.40;;;;;;;18.03;69.81;96162.50;4954721;29;20047;-77
2023/07/02 03:40:49;;;;;;;2.20;2.00;;;;;;;18.03;69.41;96157.22;4954390;29;20082;-77
2023/07/02 03:43:17;;;;;;;2.10;1.90;;;;;;;18.05;69.42;96160.44;4954143;28;20059;-77
2023/07/02 03:45:45;;;;;;;2.35;2.00;;;;;;;18.05;69.31;96163.06;4954765;29;20479;-77
2023/07/02 03:48:12;;;;;;;4.20;2.60;;;;;;;18.03;69.61;96164.34;4954732;29;20082;-77
2023/07/02 03:50:40;;;;;;;3.65;2.13;;;;;;;18.00;69.46;96159.56;4954557;29;20423;-77
2023/07/02 03:53:07;;;;;;;3.10;2.42;;;;;;;17.96;69.54;96164.50;4954515;29;20086;-77
2023/07/02 03:55:38;;;;;;;3.17;2.13;;;;;;;17.95;69.76;96173.47;4954661;29;20054;-77
2023/07/02 03:58:06;;;;;;;2.50;1.95;;;;;;;17.95;70.01;96176.13;4954461;29;20050;-77
2023/07/02 04:00:34;;;;;;;3.38;2.05;;;;;;;17.99;69.59;96169.31;4954270;29;20495;-77
2023/07/02 04:03:02;;;;;;;3.78;2.70;;;;;;;17.97;69.59;96174.00;4954447;29;20514;-77
2023/07/02 04:05:29;;;;;;;2.60;2.40;;;;;;;17.99;70.19;96182.50;4954260;29;20106;-77
2023/07/02 04:07:57;;;;;;;3.25;2.03;;;;;;;18.00;69.86;96186.75;4953941;29;20047;-77
2023/07/02 04:10:24;;;;;;;3.50;2.00;;;;;;;18.03;69.71;96185.47;4953998;29;20134;-77
2023/07/02 04:12:53;;;;;;;2.70;2.42;;;;;;;18.02;69.91;96189.94;4954645;29;20137;-77
2023/07/02 04:15:21;;;;;;;4.50;2.15;;;;;;;18.06;70.15;96184.97;4954240;29;20100;-77
2023/07/02 04:17:48;;;;;;;3.55;2.30;;;;;;;18.07;69.85;96190.03;4954006;29;20143;-77
2023/07/02 04:20:18;;;;;;;4.25;2.25;;;;;;;18.07;69.74;96190.03;4953712;29;20055;-77
2023/07/02 04:22:46;;;;;;;2.53;2.03;;;;;;;18.09;69.78;96200.34;4954198;29;20047;-77
2023/07/02 04:25:16;;;;;;;3.88;2.33;;;;;;;18.09;69.39;96203.78;4954146;29;20124;-77
2023/07/02 04:28:05;;;;;;;4.25;2.00;;;;;;;18.07;69.47;96205.84;4954155;29;20051;-77
2023/07/02 04:30:33;;;;;;;2.95;2.30;;;;;;;18.06;69.70;96206.91;4953604;29;20047;-77
2023/07/02 04:33:00;;;;;;;2.10;1.95;;;;;;;18.04;69.57;96216.13;4953737;29;20059;-76
2023/07/02 04:35:28;;;;;;;5.90;2.45;;;;;;;18.00;69.87;96221.06;4954011;29;20051;-77
2023/07/02 04:37:57;;;;;;;3.83;2.67;;;;;;;17.97;70.18;96224.16;4953894;29;20517;-77
2023/07/02 04:40:24;;;;;;;3.00;2.70;;;;;;;17.94;70.25;96219.38;4953787;29;20102;-77
2023/07/02 04:42:57;;;;;;;3.70;2.72;;;;;;;17.91;70.35;96231.19;4953844;29;20052;-77
2023/07/02 04:45:31;;;;;;;2.60;2.30;;;;;;;17.86;70.48;96248.75;4953801;29;20098;-77
2023/07/02 04:48:00;;;;;;;3.63;2.60;;;;;;;17.76;70.40;96253.84;4953791;29;20062;-77
2023/07/02 04:50:28;;;;;;;5.25;3.08;;;;;;;17.67;69.98;96259.47;4953713;29;20051;-77
2023/07/02 04:52:56;;;;;;;4.30;3.20;;;;;;;17.51;70.06;96268.13;4953845;29;20047;-77
2023/07/02 04:55:23;;;;;;;3.55;2.78;;;;;;;17.38;70.75;96265.75;4957072;28;20134;-77
2023/07/02 04:57:51;;;;;;;4.57;3.10;;;;;;;17.30;71.07;96273.00;4957616;29;20510;-77
2023/07/02 05:00:19;;;;;;;5.03;3.35;;;;;;;17.21;71.39;96271.75;4957494;29;20482;-77
2023/07/02 05:02:48;;;;;;;5.18;3.55;;;;;;;17.14;71.67;96281.59;4957615;29;20078;-77
2023/07/02 05:05:16;;;;;;;3.92;2.70;;;;;;;17.11;72.01;96284.69;4957548;29;20058;-77
2023/07/02 05:07:43;;;;;;;4.93;3.75;;;;;;;17.04;71.60;96278.75;4957356;29;20089;-77
2023/07/02 05:10:11;;;;;;;3.85;3.22;;;;;;;17.00;72.47;96293.44;4957202;29;20083;-77
2023/07/02 05:12:39;;;;;;;4.18;2.63;;;;;;;17.02;72.59;96292.16;4957209;29;20051;-77
2023/07/02 05:15:07;;;;;;;4.13;3.00;;;;;;;17.06;72.58;96295.16;4957267;29;20086;-77
2023/07/02 05:17:36;;;;;;;6.78;3.53;;;;;;;17.09;72.66;96292.03;4957425;29;20083;-77
2023/07/02 05:20:06;;;;;;;6.88;3.88;;;;;;;17.17;72.00;96302.25;4956666;29;20054;-77
2023/07/02 05:22:34;;;;;;;4.57;3.58;;;;;;;17.22;72.00;96302.34;4957085;29;20542;-77
2023/07/02 05:25:01;;;;;;;5.55;4.00;;;;;;;17.25;71.36;96296.63;4956979;29;20055;-77
2023/07/02 05:27:29;;;;;;;4.72;3.65;;;;;;;17.29;71.41;96297.75;4957044;29;20491;-78
2023/07/02 05:29:57;;;;;;;6.25;4.40;;;;;;;17.36;71.32;96302.91;4956817;29;20133;-77
2023/07/02 05:32:24;;;;;;;5.65;4.15;;;;;;;17.39;71.05;96309.56;4956797;29;20087;-77
2023/07/02 05:34:53;;;;;;;7.63;4.43;;;;;;;17.38;70.78;96308.75;4956951;29;20134;-77
2023/07/02 05:37:22;;;;;;;5.80;3.75;;;;;;;17.37;71.35;96311.63;4956932;29;20047;-78
2023/07/02 05:39:49;;;;;;;6.90;4.20;;;;;;;17.40;71.28;96305.88;4956444;29;20048;-77
2023/07/02 05:42:17;;;;;;;8.35;5.18;;;;;;;17.42;70.46;96298.53;4957079;29;20083;-77
2023/07/02 05:44:44;;;;;;;7.68;6.30;;;;;;;17.41;70.52;96304.84;4956892;29;20129;-77
2023/07/02 05:47:12;;;;;;;13.98;6.68;;;;;;;17.41;70.63;96304.84;4966371;29;20075;-77
2023/07/02 05:49:42;;;;;;;9.75;6.53;;;;;;;17.42;70.38;96309.06;4970252;29;20058;-78
2023/07/02 05:52:09;;;;;;;13.02;6.07;;;;;;;17.45;70.22;96316.53;4959888;29;20089;-77
2023/07/02 05:54:40;;;;;;;14.95;7.05;;;;;;;17.44;70.00;96320.19;4957125;29;20051;-77
2023/07/02 05:57:08;;;;;;;8.50;5.60;;;;;;;17.46;69.83;96323.41;4957260;29;20048;-77
2023/07/02 05:59:36;;;;;;;9.45;6.47;;;;;;;17.47;69.63;96325.00;4956417;29;20048;-77
2023/07/02 06:02:04;;;;;;;10.07;6.00;;;;;;;17.46;69.84;96324.19;4956904;29;20083;-77
2023/07/02 06:04:31;;;;;;;8.70;5.90;;;;;;;17.51;70.03;96320.88;4956860;29;20526;-77
2023/07/02 06:06:59;;;;;;;10.48;6.72;;;;;;;17.57;69.64;96329.69;4955639;28;20309;-78
2023/07/02 06:09:27;;;;;;;8.23;6.18;;;;;;;17.58;69.45;96334.75;4956368;29;20059;-77
2023/07/02 06:12:01;;;;;;;11.85;6.22;;;;;;;17.58;68.95;96326.00;4956706;29;20078;-79
2023/07/02 06:14:29;;;;;;;10.35;6.47;;;;;;;17.53;69.13;96328.56;4957141;29;20051;-79
2023/07/02 06:16:59;;;;;;;10.77;6.90;;;;;;;17.55;69.08;96331.75;4938825;29;20054;-78
2023/07/02 06:19:26;;;;;;;8.38;6.53;;;;;;;17.60;69.25;96331.84;4956430;29;20066;-78
2023/07/02 06:21:54;;;;;;;9.52;6.18;;;;;;;17.64;68.85;96331.16;4956607;29;20051;-78
2023/07/02 06:24:21;;;;;;;9.45;5.85;;;;;;;17.66;68.93;96328.28;4957012;29;20082;-78
2023/07/02 06:26:49;;;;;;;10.57;5.90;;;;;;;17.65;69.04;96330.13;4956935;29;20078;-78
2023/07/02 06:29:18;;;;;;;10.05;5.75;;;;;;;17.67;69.38;96329.91;4957096;29;20055;-79
2023/07/02 06:31:46;;;;;;;10.45;6.30;;;;;;;17.69;69.57;96323.34;4956814;29;20063;-79
2023/07/02 06:34:14;;;;;;;12.93;6.35;;;;;;;17.74;69.27;96324.50;4956884;29;20109;-79
2023/07/02 06:36:42;;;;;;;10.98;5.85;;;;;;;17.79;69.06;96316.69;4951382;29;20566;-78
2023/07/02 06:39:10;;;;;;;10.85;5.38;;;;;;;17.86;68.85;96328.75;4956407;29;20507;-78
2023/07/02 06:41:37;;;;;;;8.18;5.22;;;;;;;17.90;68.61;96329.06;4956274;28;20047;-78
2023/07/02 06:44:05;;;;;;;8.93;4.93;;;;;;;17.93;68.19;96323.31;4954533;29;20106;-78
2023/07/02 06:46:34;;;;;;;10.40;5.60;;;;;;;17.96;68.67;96322.06;4955530;29;20139;-77
2023/07/02 06:49:01;;;;;;;7.72;5.03;;;;;;;17.95;68.58;96318.63;4955568;28;20498;-78
2023/07/02 06:51:29;;;;;;;9.75;5.28;;;;;;;17.95;68.73;96317.78;4956847;28;20494;-79
2023/07/02 06:53:57;;;;;;;7.05;4.80;;;;;;;17.98;68.64;96325.25;4956245;28;20058;-79
2023/07/02 06:56:24;;;;;;;8.40;5.65;;;;;;;17.97;67.74;96316.50;4938949;29;20091;-79
2023/07/02 06:58:54;;;;;;;8.68;5.35;;;;;;;17.91;67.58;96325.41;4936694;29;20055;-79
2023/07/02 07:01:22;;;;;;;8.05;5.38;;;;;;;17.88;68.11;96325.84;4937713;29;20107;-79
2023/07/02 07:03:51;;;;;;;11.32;5.63;;;;;;;17.90;68.42;96331.69;4946311;29;20055;-79
2023/07/02 07:06:19;;;;;;;8.63;5.07;;;;;;;17.95;68.44;96338.91;4956424;28;20066;-79
2023/07/02 07:08:48;;;;;;;10.05;5.20;;;;;;;17.99;68.46;96337.41;4937062;29;20067;-79
2023/07/02 07:11:16;;;;;;;9.00;5.38;;;;;;;18.05;67.62;96325.91;4944741;29;20086;-79
2023/07/02 07:13:44;;;;;;;12.85;6.07;;;;;;;18.13;67.26;96330.81;4956092;29;20110;-79
2023/07/02 07:16:12;;;;;;;10.73;6.95;;;;;;;18.19;66.66;96336.97;4954595;29;20098;-78
2023/07/02 07:18:40;;;;;;;8.20;6.07;;;;;;;18.24;66.38;96332.59;4955822;29;20051;-79
2023/07/02 07:21:10;;;;;;;8.10;5.57;;;;;;;18.28;65.96;96339.03;4955937;29;20059;-79
2023/07/02 07:23:37;;;;;;;9.60;5.97;;;;;;;18.26;65.39;96333.16;4937550;29;20055;-79
2023/07/02 07:26:05;;;;;;;10.35;6.22;;;;;;;18.29;65.62;96342.44;4936224;29;20052;-79
2023/07/02 07:28:33;;;;;;;8.60;5.82;;;;;;;18.31;66.08;96335.09;4938911;29;20079;-78
2023/07/02 07:31:01;;;;;;;13.65;6.93;;;;;;;18.30;65.43;96331.66;4936037;29;20416;-79
2023/07/02 07:33:30;;;;;;;15.65;6.85;;;;;;;18.30;64.66;96338.75;4950741;29;20051;-79
2023/07/02 07:38:54;;;;;;;10.02;6.72;;;;;;;18.34;65.31;96350.44;5592294;23;20122;-86
2023/07/02 07:41:25;;;;;;;12.38;7.55;;;;;;;18.37;64.65;96355.28;4943398;29;20139;-80
2023/07/02 07:43:52;;;;;;;13.70;7.68;;;;;;;18.34;63.74;96350.44;4936300;29;20087;-80
2023/07/02 07:46:20;;;;;;;13.93;8.18;;;;;;;18.31;63.21;96350.94;4935411;29;20134;-81
2023/07/02 07:48:51;;;;;;;10.05;7.15;;;;;;;18.30;62.38;96344.03;4945092;28;20047;-82
2023/07/02 07:51:19;;;;;;;13.40;7.70;;;;;;;18.36;62.96;96358.94;4935940;29;20099;-82
2023/07/02 07:53:47;;;;;;;13.70;8.52;;;;;;;18.42;62.09;96351.91;4936269;29;20146;-80
2023/07/02 07:56:16;;;;;;;15.90;8.93;;;;;;;18.48;61.34;96362.34;4921074;29;20476;-81
2023/07/02 07:58:43;;;;;;;13.50;7.95;;;;;;;18.47;61.95;96359.94;4916955;29;20051;-82
2023/07/02 08:01:11;;;;;;;12.07;7.32;;;;;;;18.52;62.02;96357.41;4917069;29;20103;-81
2023/07/02 08:03:39;;;;;;;15.13;7.95;;;;;;;18.60;62.16;96358.81;4917315;29;20060;-81
2023/07/02 08:06:07;;;;;;;12.75;6.90;;;;;;;18.67;61.58;96357.66;4916787;29;20053;-81
2023/07/02 08:08:36;;;;;;;14.68;8.43;;;;;;;18.73;61.00;96358.53;4916674;29;20099;-81
2023/07/02 08:11:04;;;;;;;12.52;7.80;;;;;;;18.76;60.83;96355.41;4919089;29;20083;-81
2023/07/02 08:13:33;;;;;;;14.68;8.57;;;;;;;18.82;61.17;96361.59;4928411;29;20048;-82
2023/07/02 08:16:00;;;;;;;14.32;7.85;;;;;;;18.89;60.92;96352.47;4916483;29;20115;-79
2023/07/02 08:18:28;;;;;;;13.70;7.88;;;;;;;18.98;60.80;96357.34;4916364;29;20579;-78
2023/07/02 08:20:55;;;;;;;12.55;7.78;;;;;;;19.03;60.60;96357.44;4915560;29;20139;-80
2023/07/02 08:23:23;;;;;;;14.63;7.68;;;;;;;19.07;60.22;96369.16;4935431;29;20170;-78
2023/07/02 08:25:50;;;;;;;13.15;8.32;;;;;;;19.10;59.25;96363.34;4935894;29;20051;-79
2023/07/02 08:28:18;;;;;;;16.17;8.52;;;;;;;19.14;59.05;96365.28;4934597;29;20058;-79
2023/07/02 08:30:47;;;;;;;13.93;8.48;;;;;;;19.21;58.86;96370.41;4921545;29;20090;-80
2023/07/02 08:33:15;;;;;;;15.07;9.05;;;;;;;19.25;58.38;96365.44;4916438;29;20052;-80
2023/07/02 08:35:43;;;;;;;13.43;8.27;;;;;;;19.31;58.28;96364.47;4917634;29;20139;-81
2023/07/02 08:38:11;;;;;;;14.38;8.60;;;;;;;19.37;57.94;96362.69;4925630;29;20071;-80
2023/07/02 08:40:38;;;;;;;15.68;9.10;;;;;;;19.40;58.21;96378.09;4934059;29;20484;-80
2023/07/02 08:43:06;;;;;;;14.68;8.20;;;;;;;19.39;57.44;96371.97;4918815;29;20079;-80
2023/07/02 08:45:34;;;;;;;12.65;8.68;;;;;;;19.41;57.48;96363.81;4918895;29;20150;-83
2023/07/02 08:48:03;;;;;;;17.58;8.32;;;;;;;19.46;57.74;96375.25;4918921;29;20056;-80
2023/07/02 08:50:31;;;;;;;15.75;8.15;;;;;;;19.48;57.23;96370.53;4917779;29;20060;-81
2023/07/02 08:52:58;;;;;;;14.52;8.45;;;;;;;19.48;57.59;96369.72;4933769;29;20444;-80
2023/07/02 08:55:27;;;;;;;10.93;7.55;;;;;;;19.52;57.57;96371.63;4937016;29;20139;-81
2023/07/02 08:57:55;;;;;;;12.25;7.65;;;;;;;19.56;56.96;96364.00;4937779;29;20055;-81
2023/07/02 09:00:23;;;;;;;14.13;8.63;;;;;;;19.64;56.63;96373.38;4921748;29;20052;-81
2023/07/02 09:02:51;;;;;;;13.95;8.55;;;;;;;19.70;56.56;96360.00;4925804;29;20079;-81
2023/07/02 09:05:20;;;;;;;14.82;9.05;;;;;;;19.79;55.98;96363.03;4936846;29;20079;-82
2023/07/02 09:07:49;;;;;;;15.50;8.48;;;;;;;19.85;56.51;96374.44;4935268;29;20067;-80
2023/07/02 09:10:28;;;;;;;13.07;8.77;;;;;;;19.92;55.11;96359.22;4917363;29;20056;-80
2023/07/02 09:13:05;;;;;;;13.38;8.40;;;;;;;20.01;55.16;96364.88;4925014;29;20056;-81
2023/07/02 09:15:38;;;;;;;13.52;8.95;;;;;;;20.10;54.23;96364.16;4933142;29;20059;-80
2023/07/02 09:18:16;;;;;;;18.13;9.93;;;;;;;20.22;54.44;96363.22;4932683;29;20086;-80
2023/07/02 09:20:45;;;;;;;12.50;8.73;;;;;;;20.31;53.84;96357.25;4923648;29;20136;-79
2023/07/02 09:23:13;;;;;;;17.38;9.35;;;;;;;20.44;53.35;96356.03;4937902;29;20058;-80
2023/07/02 09:25:42;;;;;;;17.73;10.00;;;;;;;20.53;53.05;96359.03;4937902;29;20062;-79
2023/07/02 09:28:19;;;;;;;16.63;9.77;;;;;;;20.61;51.55;96360.47;4939704;29;20098;-83
2023/07/02 09:30:51;;;;;;;15.93;9.77;;;;;;;20.64;51.12;96366.06;4936758;29;20052;-83
2023/07/02 09:33:19;;;;;;;17.02;8.98;;;;;;;20.71;51.03;96355.28;4941296;29;20475;-83
2023/07/02 09:35:50;;;;;;;16.15;8.63;;;;;;;20.75;51.15;96351.03;4941276;29;20055;-82
2023/07/02 09:38:18;;;;;;;16.02;9.20;;;;;;;20.76;50.54;96355.31;4928002;29;20419;-80
2023/07/02 09:40:48;;;;;;;15.90;9.65;;;;;;;20.74;50.79;96349.44;4923896;29;20091;-82
2023/07/02 09:43:17;;;;;;;16.83;9.68;;;;;;;20.74;49.63;96349.44;4942955;29;20111;-82
2023/07/02 09:45:46;;;;;;;17.30;9.70;;;;;;;20.72;50.13;96362.16;4935439;29;20151;-81
2023/07/02 09:48:15;;;;;;;15.02;9.65;;;;;;;20.62;50.28;96362.88;4925856;29;20071;-79
2023/07/02 09:50:44;;;;;;;14.70;9.90;;;;;;;20.55;50.58;96364.88;4939657;29;20052;-82
2023/07/02 09:53:13;;;;;;;18.20;10.73;;;;;;;20.51;50.26;96355.81;4944251;29;20472;-82
2023/07/02 09:55:43;;;;;;;16.50;10.20;;;;;;;20.48;50.58;96361.63;4937443;29;20057;-81
2023/07/02 09:58:11;;;;;;;18.00;10.52;;;;;;;20.45;49.90;96365.59;4921301;29;20052;-82
2023/07/02 10:00:40;;;;;;;17.70;11.25;;;;;;;20.45;49.74;96357.66;4920830;29;20044;-82
2023/07/02 10:03:08;;;;;;;15.93;9.43;;;;;;;20.48;48.64;96357.13;4921561;29;20048;-82
2023/07/02 10:05:36;;;;;;;15.60;9.93;;;;;;;20.56;48.72;96348.75;4924545;29;20119;-80
2023/07/02 10:08:15;;;;;;;16.38;10.05;;;;;;;20.71;47.80;96365.88;4939246;29;20059;-82
2023/07/02 10:10:42;;;;;;;17.50;10.13;;;;;;;20.83;48.49;96347.94;4938850;29;20130;-80
2023/07/02 10:13:10;;;;;;;18.48;10.50;;;;;;;20.97;47.98;96353.63;4939229;29;20075;-79
2023/07/02 10:15:39;;;;;;;14.55;9.73;;;;;;;21.09;48.43;96343.63;4939085;29;20082;-79
2023/07/02 10:18:07;;;;;;;14.02;8.98;;;;;;;21.20;46.88;96347.13;4939376;29;20055;-79
2023/07/02 10:20:37;;;;;;;15.63;9.30;;;;;;;21.26;45.93;96351.44;4938960;29;20055;-82
2023/07/02 10:23:05;;;;;;;17.08;9.57;;;;;;;21.29;46.19;96345.59;4939735;29;20102;-80
2023/07/02 10:25:37;;;;;;;18.50;10.38;;;;;;;21.43;46.52;96345.16;4939847;29;20059;-81
2023/07/02 10:28:15;;;;;;;17.25;10.60;;;;;;;21.55;46.13;96353.75;4939856;29;20067;-81
2023/07/02 10:30:43;;;;;;;16.20;9.82;;;;;;;21.59;46.25;96360.13;4939509;29;20059;-79
2023/07/02 10:33:13;;;;;;;19.27;10.00;;;;;;;21.57;45.98;96351.63;4940345;29;20092;-82
2023/07/02 10:35:42;;;;;;;16.33;9.68;;;;;;;21.62;46.27;96364.91;4940649;29;20396;-81
2023/07/02 10:38:15;;;;;;;18.85;10.00;;;;;;;21.68;44.95;96355.94;4939989;29;20060;-83
2023/07/02 10:40:45;;;;;;;14.88;9.45;;;;;;;21.77;45.54;96348.25;4939493;29;20059;-82
2023/07/02 10:43:13;;;;;;;14.60;9.07;;;;;;;21.90;44.98;96344.34;4941915;29;20048;-82
2023/07/02 10:45:41;;;;;;;16.88;9.02;;;;;;;22.00;44.28;96347.84;4937390;29;20056;-83
2023/07/02 10:48:10;;;;;;;12.77;8.88;;;;;;;22.10;43.55;96339.09;4932325;29;20048;-82
2023/07/02 10:50:38;;;;;;;14.68;9.77;;;;;;;22.14;43.77;96339.38;4937141;29;20044;-82
2023/07/02 10:53:05;;;;;;;16.25;9.52;;;;;;;22.15;43.83;96341.78;4944324;29;20055;-82
2023/07/02 10:55:33;;;;;;;13.82;9.20;;;;;;;22.23;43.88;96352.97;4944014;29;20059;-82
2023/07/02 10:58:06;;;;;;;14.95;9.10;;;;;;;22.28;42.91;96345.81;4936851;29;20082;-83
2023/07/02 11:00:43;;;;;;;18.38;10.30;;;;;;;22.32;42.97;96343.41;4930180;29;20079;-82
2023/07/02 11:03:18;;;;;;;13.48;9.23;;;;;;;22.40;42.49;96337.59;4946065;29;20063;-82
2023/07/02 11:05:47;;;;;;;17.90;9.32;;;;;;;22.50;42.59;96331.47;4941753;29;20507;-74
2023/07/02 11:08:15;;;;;;;15.80;8.95;;;;;;;22.56;42.21;96335.75;4930336;29;20056;-74
2023/07/02 11:10:43;;;;;;;15.00;9.02;;;;;;;22.65;41.80;96344.78;4935067;29;20079;-75
2023/07/02 11:13:13;;;;;;;15.55;9.02;;;;;;;22.70;41.67;96331.50;4934972;29;20066;-74
2023/07/02 11:15:42;;;;;;;15.18;8.88;;;;;;;22.78;41.87;96327.50;4935511;29;20047;-75
2023/07/02 11:18:10;;;;;;;15.18;9.35;;;;;;;22.90;41.98;96332.59;4935325;29;20570;-75
2023/07/02 11:20:39;;;;;;;17.02;9.60;;;;;;;22.97;41.20;96341.06;4935238;29;20039;-75
2023/07/02 11:23:18;;;;;;;15.52;9.77;;;;;;;22.98;41.31;96327.53;4935705;29;20059;-75
2023/07/02 11:25:55;;;;;;;12.73;9.63;;;;;;;23.01;40.84;96332.31;4932525;29;20397;-78
2023/07/02 11:28:25;;;;;;;13.77;9.40;;;;;;;23.06;40.92;96346.69;4930905;29;20048;-78
2023/07/02 11:30:52;;;;;;;14.38;9.52;;;;;;;23.09;40.65;96328.34;4935202;29;20047;-77
2023/07/02 11:33:21;;;;;;;12.60;8.63;;;;;;;23.14;40.64;96330.19;4935660;29;20424;-77
2023/07/02 11:35:49;;;;;;;14.32;9.23;;;;;;;23.13;40.07;96323.25;4935381;29;20079;-76
2023/07/02 11:38:16;;;;;;;11.38;8.40;;;;;;;23.09;40.10;96322.19;4935234;29;20138;-77